Time;durP1;ratioP1;P1;durP2;ratioP2;P2;SDS_P1;SDS_P2;PMS_P1;PMS_P2;Temp;Humidity;BMP_temperature;BMP_pressure;BME280_temperature;BME280_humidity;BME280_pressure;Samples;Min_cycle;Max_cycle;Signal;HPM_P1;HPM_P2
2021/12/14 00:01:16;;;;;;;1999.90;999.90;;;;;;;3.75;60.92;102239.41;4901479;28;98905;-74
2021/12/14 00:03:46;;;;;;;1999.90;999.90;;;;;;;3.75;60.99;102235.00;4902296;28;100127;-75
2021/12/14 00:06:16;;;;;;;1999.90;999.90;;;;;;;3.74;60.95;102241.09;4903822;28;96940;-75
2021/12/14 00:08:52;;;;;;;1999.90;999.90;;;;;;;3.72;60.69;102237.44;4903072;28;97614;-75
2021/12/14 00:11:46;;;;;;;1999.90;999.90;;;;;;;3.73;61.15;102243.63;4903615;28;98846;-74
2021/12/14 00:15:01;;;;;;;1999.90;999.90;;;;;;;3.70;60.74;102236.41;4902795;28;97446;-74
2021/12/14 00:17:17;;;;;;;1999.90;999.90;;;;;;;3.68;60.70;102234.47;4903997;28;97287;-75
2021/12/14 00:19:46;;;;;;;1999.90;999.90;;;;;;;3.68;61.07;102235.38;4904078;28;97794;-74
2021/12/14 00:22:29;;;;;;;1999.90;999.90;;;;;;;3.68;60.97;102224.84;4907017;28;97726;-75
2021/12/14 00:24:56;;;;;;;1999.90;999.90;;;;;;;3.69;60.94;102223.16;4922435;28;97203;-75
2021/12/14 00:27:25;;;;;;;1999.90;999.90;;;;;;;3.69;61.10;102228.41;4922208;28;97325;-75
2021/12/14 00:29:55;;;;;;;1999.90;999.90;;;;;;;3.66;61.12;102229.09;4905244;28;97847;-75
2021/12/14 00:32:34;;;;;;;1999.90;999.90;;;;;;;3.65;61.00;102229.91;4905297;28;100679;-76
2021/12/14 00:35:03;;;;;;;1999.90;999.90;;;;;;;3.62;61.00;102231.38;4889749;28;97771;-76
2021/12/14 00:37:35;;;;;;;1999.90;999.90;;;;;;;3.60;61.07;102235.63;4905232;28;98274;-75
2021/12/14 00:40:10;;;;;;;1999.90;999.90;;;;;;;3.58;61.01;102235.50;4921277;28;99057;-75
2021/12/14 00:42:39;;;;;;;1999.90;999.90;;;;;;;3.58;61.08;102227.63;4906005;28;98675;-76
2021/12/14 00:45:07;;;;;;;1999.90;999.90;;;;;;;3.55;61.08;102223.84;4913444;28;97543;-75
2021/12/14 00:47:37;;;;;;;1999.90;999.90;;;;;;;3.56;61.38;102231.84;4904246;28;97266;-75
2021/12/14 00:50:08;;;;;;;1999.90;999.90;;;;;;;3.55;61.06;102224.75;4907241;28;97617;-75
2021/12/14 00:52:36;;;;;;;1999.90;999.90;;;;;;;3.52;61.07;102232.44;4906853;28;99221;-75
2021/12/14 00:55:06;;;;;;;1999.90;999.90;;;;;;;3.52;61.09;102224.53;4907908;28;97206;-76
2021/12/14 00:57:36;;;;;;;1999.90;999.90;;;;;;;3.52;61.17;102237.69;4905660;28;96833;-75
2021/12/14 01:00:08;;;;;;;1999.90;999.90;;;;;;;3.52;61.14;102232.44;4906740;28;99096;-75
2021/12/14 01:02:37;;;;;;;1999.90;999.90;;;;;;;3.53;61.17;102231.59;4904265;28;97500;-75
2021/12/14 01:05:11;;;;;;;1999.90;999.90;;;;;;;3.55;60.91;102227.38;4893189;28;96890;-75
2021/12/14 01:07:39;;;;;;;1999.90;999.90;;;;;;;3.56;61.18;102231.84;4894986;28;97232;-75
2021/12/14 01:10:20;;;;;;;1999.90;999.90;;;;;;;3.56;60.94;102223.03;4906311;28;98886;-75
2021/12/14 01:12:52;;;;;;;1999.90;999.90;;;;;;;3.58;60.85;102224.06;4903680;28;100467;-75
2021/12/14 01:15:28;;;;;;;1999.90;999.90;;;;;;;3.58;61.09;102229.31;4905380;28;97733;-75
2021/12/14 01:18:14;;;;;;;1999.90;999.90;;;;;;;3.57;61.11;102227.50;4905377;28;97459;-74
2021/12/14 01:20:44;;;;;;;1999.90;999.90;;;;;;;3.56;60.87;102226.59;4920290;28;98220;-75
2021/12/14 01:23:18;;;;;;;1999.90;999.90;;;;;;;3.56;61.03;102230.94;4902878;28;97123;-75
2021/12/14 01:25:51;;;;;;;1999.90;999.90;;;;;;;3.54;60.88;102233.47;4888318;28;98078;-75
2021/12/14 01:28:23;;;;;;;1999.90;999.90;;;;;;;3.53;60.84;102236.88;4870855;28;1085167;-75
2021/12/14 01:31:01;;;;;;;1999.90;999.90;;;;;;;3.56;60.97;102230.94;4906988;28;97675;-75
2021/12/14 01:33:33;;;;;;;1999.90;999.90;;;;;;;3.54;61.16;102237.78;4887711;28;100206;-76
2021/12/14 01:36:07;;;;;;;1999.90;999.90;;;;;;;3.55;60.80;102235.25;4906523;28;98072;-76
2021/12/14 01:38:46;;;;;;;1999.90;999.90;;;;;;;3.53;60.81;102235.97;4897212;28;97361;-75
2021/12/14 01:41:16;;;;;;;1999.90;999.90;;;;;;;3.49;61.00;102226.94;4906903;28;99371;-75
2021/12/14 01:43:48;;;;;;;1999.90;999.90;;;;;;;3.50;60.78;102236.66;4893265;28;99327;-75
2021/12/14 01:46:24;;;;;;;1999.90;999.90;;;;;;;3.50;60.69;102226.13;4921411;28;98753;-74
2021/12/14 01:49:04;;;;;;;1999.90;999.90;;;;;;;3.52;60.86;102229.78;4904810;28;97070;-75
2021/12/14 01:51:48;;;;;;;1999.90;999.90;;;;;;;3.50;60.78;102223.50;4890686;28;98468;-75
2021/12/14 01:54:22;;;;;;;1999.90;999.90;;;;;;;3.51;60.91;102227.97;4889328;28;98011;-74
2021/12/14 01:56:50;;;;;;;1999.90;999.90;;;;;;;3.52;60.88;102221.91;4909752;28;97019;-75
2021/12/14 01:59:23;;;;;;;1999.90;999.90;;;;;;;3.50;60.95;102226.13;4921964;28;97885;-76
2021/12/14 02:01:57;;;;;;;1999.90;999.90;;;;;;;3.51;60.60;102222.72;4903875;28;98729;-75
2021/12/14 02:04:28;;;;;;;1999.90;999.90;;;;;;;3.51;60.64;102227.97;4905918;28;97891;-75
2021/12/14 02:06:57;;;;;;;1999.90;999.90;;;;;;;3.49;60.85;102234.84;4889761;28;97729;-75
2021/12/14 02:09:28;;;;;;;1999.90;999.90;;;;;;;3.49;60.60;102224.31;4908987;28;97880;-75
2021/12/14 02:12:00;;;;;;;1999.90;999.90;;;;;;;3.48;60.67;102216.31;4903954;28;98804;-74
2021/12/14 02:14:31;;;;;;;1999.90;999.90;;;;;;;3.49;60.52;102218.13;4908610;28;99133;-74
2021/12/14 02:17:03;;;;;;;1999.90;999.90;;;;;;;3.48;60.41;102209.31;4905197;28;97525;-75
2021/12/14 02:19:33;;;;;;;1999.90;999.90;;;;;;;3.50;60.40;102205.09;4889356;28;96872;-73
2021/12/14 02:22:05;;;;;;;1999.90;999.90;;;;;;;3.49;60.52;102205.91;4904641;28;98547;-74
2021/12/14 02:24:35;;;;;;;1999.90;999.90;;;;;;;3.49;60.72;102208.53;4888796;28;100743;-75
2021/12/14 02:27:03;;;;;;;1999.90;999.90;;;;;;;3.50;60.46;102206.78;4905326;28;97531;-77
2021/12/14 02:29:33;;;;;;;1999.90;999.90;;;;;;;3.50;60.13;102202.44;4888153;28;97978;-74
2021/12/14 02:32:04;;;;;;;1999.90;999.90;;;;;;;3.51;60.12;102206.00;4907038;28;97657;-75
2021/12/14 02:34:38;;;;;;;1999.90;999.90;;;;;;;3.52;60.30;102207.81;4894418;28;100750;-74
2021/12/14 02:37:08;;;;;;;1999.90;999.90;;;;;;;3.51;59.89;102206.00;4904459;28;97731;-75
2021/12/14 02:39:49;;;;;;;1999.90;999.90;;;;;;;3.51;60.11;102201.66;4905449;28;97188;-75
2021/12/14 02:42:21;;;;;;;1999.90;999.90;;;;;;;3.50;60.38;102193.63;4897031;28;97637;-75
2021/12/14 02:44:52;;;;;;;1999.90;999.90;;;;;;;3.49;60.12;102198.00;4888773;28;100697;-75
2021/12/14 02:47:21;;;;;;;1999.90;999.90;;;;;;;3.47;60.07;102193.44;4906914;28;100251;-74
2021/12/14 02:49:49;;;;;;;1999.90;999.90;;;;;;;3.48;60.28;102190.91;4888970;28;97356;-74
2021/12/14 02:52:28;;;;;;;1999.90;999.90;;;;;;;3.46;60.04;102188.97;4910028;28;97594;-75
2021/12/14 02:54:58;;;;;;;1999.90;999.90;;;;;;;3.46;59.83;102183.72;4910016;28;97165;-75
2021/12/14 02:57:33;;;;;;;1999.90;999.90;;;;;;;3.44;60.02;102188.84;4899674;28;96966;-73
2021/12/14 03:00:05;;;;;;;1999.90;999.90;;;;;;;3.45;60.16;102188.06;4905043;28;97576;-75
2021/12/14 03:02:35;;;;;;;1999.90;999.90;;;;;;;3.47;59.89;102172.38;4894182;28;100094;-75
2021/12/14 03:05:07;;;;;;;1999.90;999.90;;;;;;;3.47;60.07;102175.00;4888187;28;99224;-76
2021/12/14 03:07:41;;;;;;;1999.90;999.90;;;;;;;3.47;59.72;102173.28;4886959;28;96903;-76
2021/12/14 03:10:35;;;;;;;1999.90;999.90;;;;;;;3.47;60.13;102173.28;4903849;28;97419;-76
2021/12/14 03:13:06;;;;;;;1999.90;999.90;;;;;;;3.49;59.75;102183.94;4893418;28;100914;-75
2021/12/14 03:15:42;;;;;;;1999.90;999.90;;;;;;;3.49;60.18;102169.06;4895683;28;99941;-76
2021/12/14 03:18:11;;;;;;;1999.90;999.90;;;;;;;3.48;59.86;102156.69;4921154;28;96918;-75
2021/12/14 03:20:42;;;;;;;1999.90;999.90;;;;;;;3.48;60.23;102147.91;4898173;28;96899;-76
2021/12/14 03:23:13;;;;;;;1999.90;999.90;;;;;;;3.49;60.02;102149.72;4903910;28;98081;-75
2021/12/14 03:25:44;;;;;;;1999.90;999.90;;;;;;;3.51;59.68;102145.47;4902097;28;100451;-76
2021/12/14 03:28:14;;;;;;;1999.90;999.90;;;;;;;3.50;59.79;102149.81;4903934;28;96920;-76
2021/12/14 03:30:44;;;;;;;1999.90;999.90;;;;;;;3.47;59.85;102146.97;4909950;28;98022;-75
2021/12/14 03:33:17;;;;;;;1999.90;999.90;;;;;;;3.48;59.95;102133.00;4904731;28;98722;-76
2021/12/14 03:35:47;;;;;;;1999.90;999.90;;;;;;;3.49;59.77;102137.47;4892498;28;97893;-76
2021/12/14 03:38:19;;;;;;;1999.90;999.90;;;;;;;3.47;59.93;102125.94;4896998;28;97548;-76
2021/12/14 03:40:55;;;;;;;1999.90;999.90;;;;;;;3.47;59.78;102110.13;4897457;28;97092;-76
2021/12/14 03:43:23;;;;;;;1999.90;999.90;;;;;;;3.47;59.76;102102.25;4889694;28;97824;-77
2021/12/14 03:45:53;;;;;;;1999.90;999.90;;;;;;;3.48;59.86;102114.59;4888715;28;99770;-76
2021/12/14 03:48:22;;;;;;;1999.90;999.90;;;;;;;3.50;59.83;102112.97;4909072;28;98365;-77
2021/12/14 03:50:50;;;;;;;1999.90;999.90;;;;;;;3.49;59.25;102100.63;4878925;28;96869;-76
2021/12/14 03:53:21;;;;;;;1999.90;999.90;;;;;;;3.42;59.44;102100.09;4903576;28;99548;-76
2021/12/14 03:55:55;;;;;;;1999.90;999.90;;;;;;;3.38;59.87;102092.78;4903523;28;98942;-76
2021/12/14 03:58:30;;;;;;;1999.90;999.90;;;;;;;3.33;59.82;102096.81;4908528;28;97694;-76
2021/12/14 04:01:01;;;;;;;1999.90;999.90;;;;;;;3.29;59.99;102090.44;4911670;28;97828;-77
2021/12/14 04:03:36;;;;;;;1999.90;999.90;;;;;;;3.31;60.29;102090.53;4901857;28;100700;-76
2021/12/14 04:06:18;;;;;;;1999.90;999.90;;;;;;;3.30;60.00;102089.59;4909780;28;101096;-77
2021/12/14 04:08:48;;;;;;;1999.90;999.90;;;;;;;3.30;59.88;102073.81;4908883;28;98131;-77
2021/12/14 04:11:18;;;;;;;1999.90;999.90;;;;;;;3.29;60.22;102072.00;4910267;28;96933;-77
2021/12/14 04:13:48;;;;;;;1999.90;999.90;;;;;;;3.30;60.00;102072.91;4908656;28;100177;-76
2021/12/14 04:16:25;;;;;;;1999.90;999.90;;;;;;;3.26;60.04;102066.50;4908130;28;100663;-75
2021/12/14 04:18:56;;;;;;;1999.90;999.90;;;;;;;3.26;60.09;102061.25;4892306;28;96848;-76
2021/12/14 04:21:26;;;;;;;1999.90;999.90;;;;;;;3.25;60.01;102059.44;4914288;28;97263;-76
2021/12/14 04:23:56;;;;;;;1999.90;999.90;;;;;;;3.24;60.41;102069.03;4907108;28;100708;-75
2021/12/14 04:26:24;;;;;;;1999.90;999.90;;;;;;;3.26;60.37;102066.50;4907518;28;98984;-76
2021/12/14 04:28:55;;;;;;;1999.90;999.90;;;;;;;3.28;60.32;102067.53;4879943;28;97694;-76
2021/12/14 04:31:24;;;;;;;1999.90;999.90;;;;;;;3.29;60.27;102069.38;4914096;28;96784;-75
2021/12/14 04:33:53;;;;;;;1999.90;999.90;;;;;;;3.27;60.42;102077.94;4907099;28;98782;-75
2021/12/14 04:36:24;;;;;;;1999.90;999.90;;;;;;;3.28;60.19;102075.44;4909637;28;97725;-75
2021/12/14 04:38:57;;;;;;;1999.90;999.90;;;;;;;3.29;60.40;102084.25;4911538;28;96931;-75
2021/12/14 04:52:54;;;;;;;1999.90;999.90;;;;;;;3.19;60.41;102107.25;4925749;28;96814;-75
2021/12/14 04:55:22;;;;;;;1999.90;999.90;;;;;;;3.17;60.51;102114.13;4912110;28;100613;-75
2021/12/14 04:57:51;;;;;;;1999.90;999.90;;;;;;;3.18;60.53;102102.78;4903355;28;96829;-75
2021/12/14 05:00:23;;;;;;;1999.90;999.90;;;;;;;3.18;60.22;102101.91;4902454;28;97214;-73
2021/12/14 05:03:01;;;;;;;1999.90;999.90;;;;;;;3.18;60.16;102107.16;4916394;28;97102;-76
2021/12/14 05:05:39;;;;;;;1999.90;999.90;;;;;;;3.14;60.43;102115.63;4923294;28;99234;-76
2021/12/14 05:10:58;;;;;;;1999.90;999.90;;;;;;;3.20;59.96;102124.84;4924775;28;97553;-74
2021/12/14 05:13:30;;;;;;;1999.90;999.90;;;;;;;3.07;60.57;102127.44;4909712;28;96941;-76
2021/12/14 05:15:58;;;;;;;1999.90;999.90;;;;;;;3.07;60.71;102127.44;4919809;28;97638;-75
2021/12/14 05:18:26;;;;;;;1999.90;999.90;;;;;;;3.05;60.49;102118.50;4908843;28;97545;-76
2021/12/14 05:20:54;;;;;;;1999.90;999.90;;;;;;;3.05;60.60;102122.84;4891430;28;96986;-75
2021/12/14 05:23:26;;;;;;;1999.90;999.90;;;;;;;3.04;60.26;102115.75;4921845;28;97275;-75
2021/12/14 05:25:54;;;;;;;1999.90;999.90;;;;;;;3.01;60.32;102112.91;4889414;28;99979;-75
2021/12/14 05:28:23;;;;;;;1999.90;999.90;;;;;;;3.01;60.47;102120.78;4905371;28;97586;-76
2021/12/14 05:30:58;;;;;;;1999.90;999.90;;;;;;;2.99;60.12;102125.03;4890471;28;96945;-76
2021/12/14 05:33:33;;;;;;;1999.90;999.90;;;;;;;2.99;60.33;102117.13;4906926;28;96949;-76
2021/12/14 05:36:14;;;;;;;1999.90;999.90;;;;;;;2.97;60.03;102118.72;4895058;28;99564;-77
2021/12/14 05:38:53;;;;;;;1999.90;999.90;;;;;;;2.95;60.15;102117.72;4905321;28;97993;-75
2021/12/14 05:44:53;;;;;;;1999.90;999.90;;;;;;;2.87;60.50;102111.00;4903104;28;96865;-75
2021/12/14 05:47:24;;;;;;;1999.90;999.90;;;;;;;2.86;60.64;102107.44;4901966;28;97671;-73
2021/12/14 05:50:05;;;;;;;1999.90;999.90;;;;;;;2.83;59.93;102109.88;4903850;28;96836;-75
2021/12/14 05:52:33;;;;;;;1999.90;999.90;;;;;;;2.82;60.38;102117.63;4895538;28;96960;-74
2021/12/14 05:55:13;;;;;;;1999.90;999.90;;;;;;;2.80;60.51;102114.88;4887978;28;97444;-75
2021/12/14 05:57:41;;;;;;;1999.90;999.90;;;;;;;2.81;60.32;102110.53;4886984;28;100384;-74
2021/12/14 06:00:14;;;;;;;1999.90;999.90;;;;;;;2.83;60.43;102108.94;4905124;28;97249;-74
2021/12/14 06:02:54;;;;;;;1999.90;999.90;;;;;;;2.82;60.02;102104.50;4906087;28;97096;-75
2021/12/14 06:05:23;;;;;;;1999.90;999.90;;;;;;;2.85;60.09;102102.09;4905068;28;96888;-74
2021/12/14 06:07:51;;;;;;;1999.90;999.90;;;;;;;2.88;60.04;102100.59;4904515;28;99906;-74
2021/12/14 06:10:22;;;;;;;1999.90;999.90;;;;;;;2.89;60.20;102094.50;4903485;28;99095;-75
2021/12/14 06:12:50;;;;;;;1999.90;999.90;;;;;;;2.90;59.84;102091.09;4921418;28;97271;-74
2021/12/14 06:15:25;;;;;;;1999.90;999.90;;;;;;;2.92;60.31;102088.56;4895309;28;96925;-74
2021/12/14 06:17:59;;;;;;;1999.90;999.90;;;;;;;2.96;59.79;102085.38;4888097;28;99617;-74
2021/12/14 06:20:48;;;;;;;1999.90;999.90;;;;;;;2.96;59.71;102086.28;4892681;28;101187;-74
2021/12/14 06:23:23;;;;;;;1999.90;999.90;;;;;;;2.97;60.03;102081.94;4902512;28;97400;-74
2021/12/14 06:26:03;;;;;;;1999.90;999.90;;;;;;;2.97;59.66;102084.56;4921216;28;97679;-74
2021/12/14 06:28:33;;;;;;;1999.90;999.90;;;;;;;2.97;60.18;102093.38;4911176;28;98123;-73
2021/12/14 06:31:04;;;;;;;1999.90;999.90;;;;;;;3.01;60.13;102092.78;4902749;28;97772;-74
2021/12/14 06:33:34;;;;;;;1999.90;999.90;;;;;;;3.01;59.73;102103.31;4902466;28;97467;-73
2021/12/14 06:36:11;;;;;;;1999.90;999.90;;;;;;;2.99;59.42;102093.47;4906155;28;96830;-74
2021/12/14 06:38:39;;;;;;;1999.90;999.90;;;;;;;3.00;60.00;102092.69;4892786;28;97624;-74
2021/12/14 06:41:12;;;;;;;1999.90;999.90;;;;;;;3.01;59.60;102089.25;4904065;28;99587;-74
2021/12/14 06:43:48;;;;;;;1999.90;999.90;;;;;;;3.04;59.72;102092.06;4917477;28;97288;-74
2021/12/14 06:46:19;;;;;;;1999.90;999.90;;;;;;;3.04;59.83;102092.06;4921899;28;97226;-74
2021/12/14 06:48:52;;;;;;;1999.90;999.90;;;;;;;3.03;59.89;102093.81;4906329;28;97773;-73
2021/12/14 06:51:24;;;;;;;1999.90;999.90;;;;;;;3.05;59.87;102091.28;4905993;28;98938;-74
2021/12/14 06:54:18;;;;;;;1999.90;999.90;;;;;;;3.04;59.40;102076.31;4905491;28;97725;-74
2021/12/14 06:57:05;;;;;;;1999.90;999.90;;;;;;;3.04;59.41;102090.38;4920709;28;97690;-74
2021/12/14 06:59:36;;;;;;;1999.90;999.90;;;;;;;3.06;59.21;102087.84;4921594;28;97813;-75
2021/12/14 07:02:13;;;;;;;1999.90;999.90;;;;;;;3.03;59.46;102079.75;4906193;28;99780;-73
2021/12/14 07:04:57;;;;;;;1999.90;999.90;;;;;;;3.00;59.40;102085.69;4919673;28;97114;-74
2021/12/14 07:07:28;;;;;;;1999.90;999.90;;;;;;;3.02;59.87;102094.59;4882471;28;96957;-74
2021/12/14 07:10:02;;;;;;;1999.90;999.90;;;;;;;3.01;59.29;102089.25;4905186;28;98177;-74
2021/12/14 07:12:34;;;;;;;1999.90;999.90;;;;;;;3.03;59.93;102092.91;4904277;28;100863;-75
2021/12/14 07:15:12;;;;;;;1999.90;999.90;;;;;;;3.01;59.35;102091.88;4905132;28;97131;-74
2021/12/14 07:17:45;;;;;;;1999.90;999.90;;;;;;;3.00;59.30;102093.56;4903013;28;96920;-74
2021/12/14 07:20:22;;;;;;;1999.90;999.90;;;;;;;2.97;59.52;102103.88;4904106;28;97927;-75
2021/12/14 07:22:51;;;;;;;1999.90;999.90;;;;;;;2.99;59.80;102102.28;4904784;28;97615;-74
2021/12/14 07:25:24;;;;;;;1999.90;999.90;;;;;;;2.99;59.65;102101.34;4906559;28;96985;-74
2021/12/14 07:27:53;;;;;;;1999.90;999.90;;;;;;;3.01;59.38;102099.75;4906391;28;98419;-73
2021/12/14 07:30:23;;;;;;;1999.90;999.90;;;;;;;3.03;59.70;102104.34;4923012;28;98824;-74
2021/12/14 07:32:55;;;;;;;1999.90;999.90;;;;;;;3.04;59.65;102107.84;4917029;28;98055;-74
2021/12/14 07:35:32;;;;;;;1999.90;999.90;;;;;;;3.02;59.24;102106.88;4910438;28;97827;-72
2021/12/14 07:38:05;;;;;;;1999.90;999.90;;;;;;;3.03;59.16;102100.78;4911265;28;97544;-73
2021/12/14 07:40:38;;;;;;;1999.90;999.90;;;;;;;3.02;59.09;102112.13;4909759;28;98178;-72
2021/12/14 07:43:09;;;;;;;1999.90;999.90;;;;;;;3.01;59.00;102116.47;4893960;28;100298;-73
2021/12/14 07:45:47;;;;;;;1999.90;999.90;;;;;;;3.02;59.51;102120.00;4898991;28;97398;-74
2021/12/14 07:48:19;;;;;;;1999.90;999.90;;;;;;;3.00;59.72;102114.59;4906348;28;97426;-73
2021/12/14 07:50:52;;;;;;;1999.90;999.90;;;;;;;3.00;59.33;102108.47;4906389;28;97868;-73
2021/12/14 07:53:32;;;;;;;1999.90;999.90;;;;;;;3.00;59.32;102111.09;4912100;28;99183;-72
2021/12/14 07:56:00;;;;;;;1999.90;999.90;;;;;;;3.01;59.61;102121.72;4911810;28;96584;-74
2021/12/14 07:58:33;;;;;;;1999.90;999.90;;;;;;;3.02;59.47;102117.38;4908985;28;96897;-74
2021/12/14 08:01:01;;;;;;;1999.90;999.90;;;;;;;3.03;59.38;102124.44;4908636;28;97664;-74
2021/12/14 08:03:33;;;;;;;1999.90;999.90;;;;;;;2.99;59.00;102123.31;4910462;28;97534;-75
2021/12/14 08:06:04;;;;;;;1999.90;999.90;;;;;;;3.02;59.44;102127.91;4921923;28;96804;-73
2021/12/14 08:08:41;;;;;;;1999.90;999.90;;;;;;;3.02;59.63;102133.16;4908452;28;96969;-74
2021/12/14 08:14:04;;;;;;;1999.90;999.90;;;;;;;2.99;59.55;102143.44;4900692;28;99102;-75
2021/12/14 08:16:39;;;;;;;1999.90;999.90;;;;;;;2.97;59.64;102139.78;4908666;28;97806;-74
2021/12/14 08:19:07;;;;;;;1999.90;999.90;;;;;;;2.97;59.46;102147.66;4910741;28;97056;-75
2021/12/14 08:21:36;;;;;;;1999.90;999.90;;;;;;;2.97;59.18;102150.28;4907451;28;99263;-74
2021/12/14 08:24:06;;;;;;;1999.90;999.90;;;;;;;2.99;59.28;102153.94;4909028;28;99377;-74
2021/12/14 08:26:37;;;;;;;1999.90;999.90;;;;;;;3.01;59.37;102157.59;4909222;28;97674;-74
2021/12/14 08:29:08;;;;;;;1999.90;999.90;;;;;;;3.02;59.26;102149.81;4909990;28;97619;-73
2021/12/14 08:31:42;;;;;;;1999.90;999.90;;;;;;;2.99;58.95;102154.88;4917484;28;99294;-73
2021/12/14 08:34:11;;;;;;;1999.90;999.90;;;;;;;3.01;59.11;102154.97;4910297;28;97790;-73
2021/12/14 08:36:44;;;;;;;1999.90;999.90;;;;;;;3.01;59.19;102147.09;4909573;28;98188;-74
2021/12/14 08:39:15;;;;;;;1999.90;999.90;;;;;;;3.02;59.51;102149.81;4911997;28;97756;-74
2021/12/14 08:41:51;;;;;;;1999.90;999.90;;;;;;;3.01;58.89;102152.34;4910071;28;99026;-73
2021/12/14 08:44:34;;;;;;;1999.90;999.90;;;;;;;3.00;59.41;102154.06;4910167;28;97866;-73
2021/12/14 08:47:02;;;;;;;1999.90;999.90;;;;;;;3.03;59.37;102156.94;4910637;28;96771;-73
2021/12/14 08:49:30;;;;;;;1999.90;999.90;;;;;;;3.04;59.30;102148.22;4908992;28;98061;-71
2021/12/14 08:52:00;;;;;;;1999.90;999.90;;;;;;;3.06;59.26;102149.25;4908370;28;100602;-73
2021/12/14 08:54:30;;;;;;;1999.90;999.90;;;;;;;3.08;58.73;102147.66;4907659;28;99186;-75
2021/12/14 08:57:01;;;;;;;1999.90;999.90;;;;;;;3.07;59.12;102139.66;4908419;28;97035;-74
2021/12/14 08:59:29;;;;;;;1999.90;999.90;;;;;;;3.06;59.02;102148.31;4910356;28;96849;-74
2021/12/14 09:01:58;;;;;;;1999.90;999.90;;;;;;;3.05;59.04;102143.88;4909997;28;98976;-73
2021/12/14 09:04:30;;;;;;;1999.90;999.90;;;;;;;3.05;59.09;102144.81;4909744;28;98167;-74
2021/12/14 09:07:04;;;;;;;1999.90;999.90;;;;;;;3.04;59.15;102155.19;4892747;28;97450;-73
2021/12/14 09:09:33;;;;;;;1999.90;999.90;;;;;;;3.05;59.02;102152.69;4909747;28;96816;-73
2021/12/14 09:12:04;;;;;;;1999.90;999.90;;;;;;;3.03;58.79;102154.31;4908682;28;98031;-73
2021/12/14 09:14:33;;;;;;;1999.90;999.90;;;;;;;3.04;59.16;102149.94;4907114;28;99228;-73
2021/12/14 09:17:03;;;;;;;1999.90;999.90;;;;;;;3.02;59.02;102144.56;4907955;28;97274;-73
2021/12/14 09:19:33;;;;;;;1999.90;999.90;;;;;;;3.00;59.22;102142.66;4908024;28;97003;-71
2021/12/14 09:22:05;;;;;;;1999.90;999.90;;;;;;;2.99;59.06;102146.06;4923693;28;99229;-73
2021/12/14 09:24:33;;;;;;;1999.90;999.90;;;;;;;3.01;59.05;102152.34;4911442;28;99274;-73
2021/12/14 09:27:05;;;;;;;1999.90;999.90;;;;;;;3.00;58.82;102146.16;4908850;28;97724;-73
2021/12/14 09:29:34;;;;;;;1999.90;999.90;;;;;;;3.00;58.94;102142.66;4907043;28;97641;-72
2021/12/14 09:32:04;;;;;;;1999.90;999.90;;;;;;;3.00;59.00;102138.28;4908822;28;98158;-72
2021/12/14 09:34:34;;;;;;;1999.90;999.90;;;;;;;2.97;58.89;102129.25;4907908;28;98720;-74
2021/12/14 09:37:11;;;;;;;1999.90;999.90;;;;;;;2.99;58.74;102128.56;4907892;28;97368;-73
2021/12/14 09:39:42;;;;;;;1999.90;999.90;;;;;;;3.04;58.93;102139.41;4909101;28;96857;-74
2021/12/14 09:42:12;;;;;;;1999.90;999.90;;;;;;;3.04;58.95;102135.06;4907162;28;100754;-73
2021/12/14 09:44:41;;;;;;;1999.90;999.90;;;;;;;3.03;59.04;102133.25;4912785;28;98768;-79
2021/12/14 09:47:13;;;;;;;1999.90;999.90;;;;;;;3.04;58.56;102128.88;4919773;28;97170;-79
2021/12/14 09:49:43;;;;;;;1999.90;999.90;;;;;;;3.05;59.24;102130.75;4914886;28;96813;-79
2021/12/14 09:52:18;;;;;;;1999.90;999.90;;;;;;;3.03;58.96;102129.72;4914784;28;99330;-79
2021/12/14 09:54:45;;;;;;;1999.90;999.90;;;;;;;3.03;59.01;102129.72;4914126;28;101123;-79
2021/12/14 09:57:16;;;;;;;1999.90;999.90;;;;;;;3.00;59.05;102122.50;4915343;28;97158;-79
2021/12/14 09:59:45;;;;;;;1999.90;999.90;;;;;;;3.00;58.65;102125.13;4917314;28;96867;-79
2021/12/14 10:02:15;;;;;;;1999.90;999.90;;;;;;;2.95;58.89;102115.06;4912492;28;99365;-78
2021/12/14 10:04:46;;;;;;;1999.90;999.90;;;;;;;2.95;59.27;102120.34;4907094;28;96952;-76
2021/12/14 10:07:16;;;;;;;1999.90;999.90;;;;;;;2.98;58.81;102123.22;4906994;28;96828;-76
2021/12/14 10:09:48;;;;;;;1999.90;999.90;;;;;;;2.97;58.71;102122.28;4909679;28;97198;-76
2021/12/14 10:12:41;;;;;;;1999.90;999.90;;;;;;;3.01;58.87;102121.72;4907078;28;98053;-76
2021/12/14 10:15:12;;;;;;;1999.90;999.90;;;;;;;3.02;58.67;102125.28;4907816;28;98151;-76
2021/12/14 10:17:41;;;;;;;1999.90;999.90;;;;;;;3.05;58.78;102133.38;4908946;28;97177;-77
2021/12/14 10:20:14;;;;;;;1999.90;999.90;;;;;;;3.05;58.90;102150.06;4908255;28;98480;-77
2021/12/14 10:22:45;;;;;;;1999.90;999.90;;;;;;;3.07;58.71;102129.13;4907697;28;97642;-76
2021/12/14 10:25:16;;;;;;;1999.90;999.90;;;;;;;3.08;58.51;102118.72;4908275;28;99943;-77
2021/12/14 10:27:46;;;;;;;1999.90;999.90;;;;;;;3.10;59.00;102109.22;4907596;28;96785;-76
2021/12/14 10:30:19;;;;;;;1999.90;999.90;;;;;;;3.14;58.92;102113.00;4909016;28;96971;-74
2021/12/14 10:32:48;;;;;;;1999.90;999.90;;;;;;;3.18;58.75;102115.03;4906977;28;99514;-77
2021/12/14 10:35:22;;;;;;;1999.90;999.90;;;;;;;3.21;58.73;102117.88;4908145;28;97625;-74
2021/12/14 10:38:12;;;;;;;1999.90;999.90;;;;;;;3.21;58.68;102117.88;4908176;28;97523;-75
2021/12/14 10:43:29;;;;;;;1999.90;999.90;;;;;;;3.22;58.55;102119.72;4890273;28;99749;-74
2021/12/14 10:45:59;;;;;;;1999.90;999.90;;;;;;;3.21;59.01;102126.69;4906893;28;97568;-72
2021/12/14 10:48:30;;;;;;;1999.90;999.90;;;;;;;3.21;58.59;102131.03;4907738;28;97177;-70
2021/12/14 10:51:00;;;;;;;1999.90;999.90;;;;;;;3.22;58.82;102132.88;4909533;28;97455;-73
2021/12/14 10:53:30;;;;;;;1999.90;999.90;;;;;;;3.24;58.91;102126.91;4906056;28;99783;-72
2021/12/14 10:56:09;;;;;;;1999.90;999.90;;;;;;;3.28;59.06;102122.78;4906937;28;100795;-76
2021/12/14 10:58:37;;;;;;;1999.90;999.90;;;;;;;3.32;58.68;102119.56;4895425;28;96852;-73
2021/12/14 11:01:10;;;;;;;1999.90;999.90;;;;;;;3.34;58.99;102114.41;4904569;28;96879;-73
2021/12/14 11:03:43;;;;;;;1999.90;999.90;;;;;;;3.37;59.05;102109.38;4921443;28;101055;-73
2021/12/14 11:06:14;;;;;;;1999.90;999.90;;;;;;;3.40;58.95;102099.06;4920750;28;100291;-73
2021/12/14 11:08:50;;;;;;;1999.90;999.90;;;;;;;3.43;58.91;102115.97;4905635;28;97387;-73
2021/12/14 11:11:23;;;;;;;1999.90;999.90;;;;;;;3.45;58.72;102118.72;4915634;28;97702;-72
2021/12/14 11:13:55;;;;;;;1999.90;999.90;;;;;;;3.47;58.60;102114.47;4904432;28;99433;-73
2021/12/14 11:16:34;;;;;;;1999.90;999.90;;;;;;;3.47;58.40;102119.75;4906632;28;97595;-71
2021/12/14 11:19:04;;;;;;;1999.90;999.90;;;;;;;3.49;58.68;102111.16;4889928;28;97032;-73
2021/12/14 11:21:33;;;;;;;1999.90;999.90;;;;;;;3.51;58.67;102103.38;4908031;28;96874;-73
2021/12/14 11:24:02;;;;;;;1999.90;999.90;;;;;;;3.49;58.92;102100.63;4906101;28;99622;-73
2021/12/14 11:26:34;;;;;;;1999.90;999.90;;;;;;;3.52;58.80;102102.56;4906237;28;99755;-72
2021/12/14 11:29:09;;;;;;;1999.90;999.90;;;;;;;3.52;58.56;102103.47;4907849;28;98602;-72
2021/12/14 11:31:39;;;;;;;1999.90;999.90;;;;;;;3.53;58.87;102099.13;4908530;28;97408;-73
2021/12/14 11:34:10;;;;;;;1999.90;999.90;;;;;;;3.55;59.00;102101.03;4909364;28;97657;-72
2021/12/14 11:36:39;;;;;;;1999.90;999.90;;;;;;;3.58;58.64;102103.00;4907883;28;99705;-73
2021/12/14 11:39:12;;;;;;;1999.90;999.90;;;;;;;3.58;58.92;102100.34;4918399;28;97142;-73